Terminal Aerodrome Forecast
Issued by NWS Shreveport, LA

Home | Current Version | Previous Version | Text Only | Print | Product List | Glossary On
Versions: 1 2 3 4 5 6 7 8 9 10 11 12 13 14 15 16 17 18
000
FTUS44 KSHV 282336
TAFLFK
TAF
KLFK 282336Z 2900/2924 15006KT P6SM SCT100 BKN250
     FM290900 18005KT 2SM BR BKN010
     FM291500 20006KT P6SM BKN020
     FM291800 18007KT P6SM VCTS BKN035CB OVC100
      TEMPO 2920/2924 3SM TSRA OVC030CB=

USA.gov is the U.S. government's official web portal to all federal, state and local government web resources and services.